This is the latest recevied weather packets stored in our database for station/object KC1TEM-13. If no packets are shown the sender has not sent any weather packets the latest 10 day(s).
| Time | Temp. | Humidity | Pressure | Rain* | Wind** | Luminosity | Snow |
|---|---|---|---|---|---|---|---|
| 1777753201 | 11.67° C | 74% | 1010.5 hPa | 0 mm | - | 68 W/m² | - |
| 1777752896 | 11.67° C | 73% | 1010.4 hPa | 0 mm | - | 74 W/m² | - |
| 1777751987 | 13.33° C | 55% | 1010.5 hPa | 0 mm | - | 42 W/m² | - |
| 1777751684 | 13.89° C | 54% | 1010.5 hPa | 0 mm | - | 63 W/m² | - |
| 1777751380 | 13.89° C | 54% | 1010.4 hPa | 0 mm | - | 83 W/m² | - |
| 1777750773 | 13.89° C | 54% | 1010.2 hPa | 0 mm | - | 175 W/m² | - |
| 1777750165 | 13.33° C | 55% | 1010.6 hPa | 0 mm | - | 78 W/m² | - |
| 1777749863 | 13.33° C | 69% | 1010.5 hPa | 0 mm | - | 72 W/m² | - |
| 1777749560 | 13.33° C | 67% | 1010.6 hPa | 0 mm | - | 72 W/m² | - |
| 1777748955 | 13.33° C | 66% | 1010.6 hPa | 0 mm | - | 167 W/m² | - |
| 1777748652 | 13.33° C | 66% | 1010.9 hPa | 0 mm | - | 247 W/m² | - |
| 1777748348 | 13.33° C | 66% | 1010.6 hPa | 0 mm | - | 425 W/m² | - |
| 1777747133 | 12.78° C | 68% | 1011 hPa | 0 mm | - | 201 W/m² | - |
| 1777745917 | 13.89° C | 60% | 1011.1 hPa | 0 mm | - | 181 W/m² | - |
| 1777744706 | 13.89° C | 60% | 1011 hPa | 0 mm | - | 227 W/m² | - |
| 1777743190 | 13.33° C | 63% | 1011.3 hPa | 0 mm | - | 305 W/m² | - |
| 1777742887 | 13.89° C | 66% | 1011.4 hPa | 0 mm | - | 254 W/m² | - |
| 1777741673 | 12.78° C | 66% | 1011.6 hPa | 0 mm | - | 154 W/m² | - |
| 1777740459 | 13.33° C | 63% | 1011.8 hPa | 0 mm | - | 509 W/m² | - |
| 1777739852 | 12.78° C | 66% | 1012 hPa | 0 mm | - | 1117 W/m² | - |
| 1777739246 | 12.22° C | 71% | 1012.2 hPa | 0 mm | - | 362 W/m² | - |
| 1777738640 | 12.78° C | 74% | 1012.1 hPa | 0 mm | - | 488 W/m² | - |
| 1777738035 | 12.22° C | 71% | 1012.1 hPa | 0 mm | - | 422 W/m² | - |
| 1777736200 | 10.56° C | 81% | 1012.1 hPa | 0 mm | - | 157 W/m² | - |
| 1777735897 | 10.56° C | 79% | 1012.2 hPa | 0 mm | - | 155 W/m² | - |
* Rain latest hour (hover to see other rain measurements)
** Current wind speed in m/s (hover to see current wind gust speed)